createdAt,value
2022-10-06T00:01:03.120Z,17.35
2022-10-06T00:04:06.126Z,17.34
2022-10-06T00:07:07.998Z,17.26
2022-10-06T00:10:09.869Z,17.30
2022-10-06T00:13:11.552Z,17.08
2022-10-06T00:16:17.335Z,16.99
2022-10-06T00:19:20.559Z,16.77
2022-10-06T00:22:22.162Z,16.72
2022-10-06T00:25:25.572Z,16.79
2022-10-06T00:28:27.896Z,16.56
2022-10-06T00:31:30.089Z,16.53
2022-10-06T00:34:33.119Z,16.66
2022-10-06T00:37:38.123Z,16.79
2022-10-06T00:40:45.916Z,16.81
2022-10-06T00:43:52.066Z,16.81
2022-10-06T00:46:54.774Z,16.86
2022-10-06T00:49:59.109Z,16.67
2022-10-06T00:53:01.155Z,16.61
2022-10-06T00:56:02.828Z,16.49
2022-10-06T00:59:06.688Z,16.48
2022-10-06T01:02:13.012Z,16.42
2022-10-06T01:05:23.939Z,16.35
2022-10-06T01:08:26.347Z,15.98
2022-10-06T01:11:28.213Z,16.01
2022-10-06T01:14:30.615Z,15.82
2022-10-06T01:17:37.638Z,15.83
2022-10-06T01:20:44.122Z,15.98
2022-10-06T01:23:47.350Z,16.22
2022-10-06T01:26:51.513Z,16.36
2022-10-06T01:29:55.690Z,16.46
2022-10-06T01:32:57.433Z,16.41
2022-10-06T01:35:59.902Z,16.49
2022-10-06T01:39:03.028Z,16.56
2022-10-06T01:42:05.008Z,16.46
2022-10-06T01:45:08.477Z,16.41
2022-10-06T01:48:10.254Z,16.51
2022-10-06T01:51:14.277Z,16.45
2022-10-06T01:54:17.421Z,16.49
2022-10-06T01:57:21.200Z,16.50
2022-10-06T02:00:23.175Z,16.54
2022-10-06T02:03:24.893Z,16.53
2022-10-06T02:06:26.561Z,16.49
2022-10-06T02:09:29.590Z,16.55
2022-10-06T02:12:31.781Z,16.58
2022-10-06T02:15:34.816Z,16.47
2022-10-06T02:18:36.572Z,16.51
2022-10-06T02:21:38.787Z,16.58
2022-10-06T02:24:41.737Z,16.61
2022-10-06T02:27:43.911Z,16.66
2022-10-06T02:30:46.787Z,16.57
2022-10-06T02:33:48.519Z,16.56
2022-10-06T02:36:52.227Z,16.41
2022-10-06T02:39:55.431Z,16.51
2022-10-06T02:42:58.354Z,16.51
2022-10-06T02:46:02.707Z,16.34
2022-10-06T02:49:04.485Z,16.33
2022-10-06T02:52:06.142Z,16.37
2022-10-06T02:55:10.186Z,16.31
2022-10-06T02:58:11.883Z,16.19
2022-10-06T03:01:16.752Z,16.23
2022-10-06T03:04:18.891Z,16.29
2022-10-06T03:07:20.645Z,16.44
2022-10-06T03:10:23.713Z,16.47
2022-10-06T03:13:25.573Z,16.45
2022-10-06T03:16:30.956Z,16.41
2022-10-06T03:19:34.211Z,16.39
2022-10-06T03:22:35.853Z,16.32
2022-10-06T03:25:55.252Z,16.32
2022-10-06T03:28:57.867Z,16.22
2022-10-06T03:31:59.769Z,16.24
2022-10-06T03:35:01.430Z,16.18
2022-10-06T03:38:03.541Z,16.16
2022-10-06T03:41:09.095Z,16.18
2022-10-06T03:44:10.786Z,16.17
2022-10-06T03:47:17.476Z,16.15
2022-10-06T03:50:20.216Z,16.15
2022-10-06T03:53:25.642Z,16.06
2022-10-06T03:56:30.539Z,16.03
2022-10-06T03:59:34.281Z,16.06
2022-10-06T04:02:38.277Z,16.00
2022-10-06T04:05:40.005Z,15.90
2022-10-06T04:08:41.978Z,15.92
2022-10-06T04:11:45.220Z,16.00
2022-10-06T04:14:47.325Z,15.88
2022-10-06T04:17:48.972Z,15.75
2022-10-06T04:20:50.923Z,15.72
2022-10-06T04:23:53.225Z,15.58
2022-10-06T04:27:16.363Z,15.70
2022-10-06T04:30:22.293Z,15.64
2022-10-06T04:33:24.530Z,15.63
2022-10-06T04:36:29.142Z,15.58
2022-10-06T04:39:30.708Z,15.51
2022-10-06T04:42:35.249Z,15.42
2022-10-06T04:45:39.288Z,15.47
2022-10-06T04:48:41.149Z,15.47
2022-10-06T04:51:42.863Z,15.38
2022-10-06T04:54:44.571Z,15.41
2022-10-06T04:57:48.269Z,15.51
2022-10-06T05:00:50.067Z,15.43
2022-10-06T05:03:54.136Z,15.29
2022-10-06T05:06:56.079Z,15.17
2022-10-06T05:09:57.832Z,15.38
2022-10-06T05:13:03.666Z,15.35
2022-10-06T05:16:08.137Z,15.29
2022-10-06T05:19:11.835Z,15.35
2022-10-06T05:22:14.849Z,15.25
2022-10-06T05:25:16.560Z,15.14
2022-10-06T05:28:20.203Z,15.11
2022-10-06T05:31:23.509Z,15.00
2022-10-06T05:34:25.533Z,15.04
2022-10-06T05:37:27.269Z,15.09
2022-10-06T05:40:29.502Z,14.95
2022-10-06T05:43:34.057Z,15.00
2022-10-06T05:46:36.193Z,14.94
2022-10-06T05:49:37.823Z,14.94
2022-10-06T05:52:40.413Z,14.97
2022-10-06T05:55:42.116Z,14.96
2022-10-06T05:58:47.534Z,15.11
2022-10-06T06:01:50.289Z,15.04
2022-10-06T06:05:05.952Z,15.04
2022-10-06T06:08:07.806Z,14.97
2022-10-06T06:11:10.346Z,15.14
2022-10-06T06:14:15.466Z,14.96
2022-10-06T06:17:17.511Z,14.99
2022-10-06T06:20:19.370Z,15.01
2022-10-06T06:23:21.079Z,15.21
2022-10-06T06:26:24.936Z,15.19
2022-10-06T06:29:28.578Z,15.21
2022-10-06T06:32:30.357Z,15.23
2022-10-06T06:35:34.289Z,15.24
2022-10-06T06:38:36.202Z,15.16
2022-10-06T06:41:40.496Z,15.27
2022-10-06T06:44:54.765Z,15.39
2022-10-06T06:48:03.347Z,15.29
2022-10-06T06:51:07.477Z,15.32
2022-10-06T06:54:11.025Z,15.47
2022-10-06T06:57:16.518Z,15.39
2022-10-06T07:00:23.252Z,15.41
2022-10-06T07:03:52.008Z,15.49
2022-10-06T07:06:53.416Z,15.39
2022-10-06T07:09:55.780Z,15.38
2022-10-06T07:12:59.758Z,15.26
2022-10-06T07:16:21.395Z,15.18
2022-10-06T07:19:42.307Z,15.10
2022-10-06T07:23:05.345Z,14.92
2022-10-06T07:26:07.241Z,14.67
2022-10-06T07:29:09.325Z,14.75
2022-10-06T07:32:12.969Z,14.69
2022-10-06T07:35:16.504Z,14.66
2022-10-06T07:38:18.612Z,14.85
2022-10-06T07:41:25.155Z,14.88
2022-10-06T07:44:30.220Z,14.79
2022-10-06T07:47:33.745Z,14.75
2022-10-06T07:50:38.024Z,14.81
2022-10-06T07:53:39.789Z,15.10
2022-10-06T07:56:50.264Z,15.19
2022-10-06T07:59:52.342Z,15.19
2022-10-06T08:02:55.797Z,15.21
2022-10-06T08:05:59.759Z,15.22
2022-10-06T08:09:04.166Z,15.38
2022-10-06T08:12:25.886Z,15.42
2022-10-06T08:15:27.731Z,15.43
2022-10-06T08:18:47.202Z,15.50
2022-10-06T08:21:49.053Z,15.41
2022-10-06T08:25:05.159Z,15.50
2022-10-06T08:28:07.243Z,15.58
2022-10-06T08:31:11.582Z,15.66
2022-10-06T08:34:14.782Z,15.72
2022-10-06T08:37:20.320Z,15.79
2022-10-06T08:40:23.029Z,15.75
2022-10-06T08:43:26.156Z,15.80
2022-10-06T08:46:34.791Z,15.80
2022-10-06T08:49:40.893Z,15.80
2022-10-06T08:52:51.437Z,16.01
2022-10-06T08:56:00.422Z,16.10
2022-10-06T08:59:04.404Z,16.15
2022-10-06T09:02:21.951Z,16.20
2022-10-06T09:05:26.633Z,16.12
2022-10-06T09:08:37.983Z,16.22
2022-10-06T09:11:46.810Z,16.24
2022-10-06T09:14:55.304Z,16.23
2022-10-06T09:18:02.291Z,16.40
2022-10-06T09:21:12.253Z,16.30
2022-10-06T09:24:17.453Z,16.26
2022-10-06T09:27:21.867Z,16.31
2022-10-06T09:30:24.255Z,16.30
2022-10-06T09:33:32.015Z,16.45
2022-10-06T09:37:01.697Z,16.62
2022-10-06T09:40:33.715Z,16.67
2022-10-06T09:43:35.436Z,16.78
2022-10-06T09:46:41.722Z,16.65
2022-10-06T09:49:44.029Z,16.80
2022-10-06T09:53:21.869Z,16.56
2022-10-06T09:56:23.821Z,16.73
2022-10-06T09:59:35.058Z,16.84
2022-10-06T10:02:40.914Z,16.87
2022-10-06T10:05:48.252Z,17.03
2022-10-06T10:08:51.345Z,17.16
2022-10-06T10:12:30.858Z,17.23
2022-10-06T10:15:40.373Z,17.17
2022-10-06T10:18:46.805Z,17.16
2022-10-06T10:21:48.525Z,17.32
2022-10-06T10:25:01.077Z,17.60
2022-10-06T10:28:09.644Z,17.57
2022-10-06T10:31:18.710Z,17.58
2022-10-06T10:34:39.951Z,17.25
2022-10-06T10:37:47.354Z,17.73
2022-10-06T10:40:55.807Z,17.61
2022-10-06T10:44:09.930Z,17.64
2022-10-06T10:47:17.878Z,17.67
2022-10-06T10:50:27.511Z,17.61
2022-10-06T10:53:40.226Z,17.62
2022-10-06T10:56:49.089Z,17.94
2022-10-06T10:59:58.693Z,17.76
2022-10-06T11:03:01.565Z,17.78
2022-10-06T11:06:21.398Z,17.49
2022-10-06T11:09:28.927Z,17.84
2022-10-06T11:12:54.220Z,17.85
2022-10-06T11:16:23.223Z,18.32
2022-10-06T11:19:37.482Z,18.28
2022-10-06T11:22:45.094Z,18.15
2022-10-06T11:25:55.575Z,17.71
2022-10-06T11:29:01.773Z,17.73
2022-10-06T11:32:16.596Z,17.91
2022-10-06T11:35:21.344Z,18.22
2022-10-06T11:38:27.163Z,18.55
2022-10-06T11:41:34.480Z,18.79
2022-10-06T11:44:42.618Z,18.56
2022-10-06T11:48:13.627Z,18.45
2022-10-06T11:51:33.422Z,18.23
2022-10-06T11:54:47.617Z,18.51
2022-10-06T11:58:29.753Z,18.39
2022-10-06T12:01:55.755Z,18.55
2022-10-06T12:08:55.905Z,19.01
2022-10-06T12:12:01.296Z,18.74
2022-10-06T12:17:08.508Z,18.82
2022-10-06T12:19:18.655Z,19.43
2022-10-06T12:22:26.246Z,19.87
2022-10-06T12:25:34.717Z,20.42
2022-10-06T12:28:40.984Z,20.37
2022-10-06T12:31:50.679Z,20.68
2022-10-06T12:35:01.316Z,19.25
2022-10-06T12:38:05.815Z,18.53
2022-10-06T12:41:10.257Z,19.42
2022-10-06T12:44:23.136Z,19.88
2022-10-06T12:47:34.729Z,20.23
2022-10-06T12:50:38.849Z,20.38
2022-10-06T12:53:49.553Z,20.30
2022-10-06T12:56:58.970Z,20.37
2022-10-06T13:00:00.891Z,20.19
2022-10-06T13:03:06.154Z,20.00
2022-10-06T13:06:09.587Z,20.27
2022-10-06T13:09:14.306Z,20.15
2022-10-06T13:12:21.599Z,20.86
2022-10-06T13:15:25.341Z,20.88
2022-10-06T13:18:27.906Z,20.85
2022-10-06T13:21:31.642Z,21.05
2022-10-06T13:24:34.546Z,20.44
2022-10-06T13:27:36.575Z,19.77
2022-10-06T13:30:39.034Z,19.71
2022-10-06T13:33:42.930Z,20.29
2022-10-06T13:36:48.773Z,20.45
2022-10-06T13:39:50.490Z,21.24
2022-10-06T13:42:52.157Z,20.85
2022-10-06T13:45:54.411Z,20.61
2022-10-06T13:49:00.696Z,20.52
2022-10-06T13:52:15.078Z,20.33
2022-10-06T13:55:20.643Z,20.18
2022-10-06T13:58:26.910Z,20.82
2022-10-06T14:01:30.007Z,20.27
2022-10-06T14:04:34.697Z,20.37
2022-10-06T14:07:44.411Z,20.71
2022-10-06T14:10:49.432Z,19.71
2022-10-06T14:13:55.042Z,20.40
2022-10-06T14:16:57.786Z,20.54
2022-10-06T14:19:59.626Z,21.01
2022-10-06T14:23:32.983Z,20.94
2022-10-06T14:26:34.683Z,21.01
2022-10-06T14:29:37.873Z,20.64
2022-10-06T14:32:40.107Z,20.20
2022-10-06T14:35:43.467Z,20.40
2022-10-06T14:38:48.664Z,20.29
2022-10-06T14:41:50.387Z,19.95
2022-10-06T14:44:52.094Z,20.17
2022-10-06T14:47:53.801Z,20.06
2022-10-06T14:50:57.645Z,19.85
2022-10-06T14:54:00.894Z,19.45
2022-10-06T14:57:02.591Z,19.59
2022-10-06T15:00:05.509Z,19.36
2022-10-06T15:03:07.201Z,19.63
2022-10-06T15:06:29.447Z,19.56
2022-10-06T15:09:32.927Z,19.44
2022-10-06T15:12:34.574Z,19.36
2022-10-06T15:15:36.765Z,19.09
2022-10-06T15:18:42.602Z,18.93
2022-10-06T15:21:45.583Z,18.66
2022-10-06T15:24:51.247Z,18.74
2022-10-06T15:28:11.473Z,18.93
2022-10-06T15:31:13.251Z,18.55
2022-10-06T15:34:15.017Z,18.42
2022-10-06T15:37:19.871Z,18.38
2022-10-06T15:40:22.972Z,18.30
2022-10-06T15:43:44.577Z,17.95
2022-10-06T15:46:49.220Z,17.92
2022-10-06T15:49:51.172Z,17.80
2022-10-06T15:52:52.866Z,17.81
2022-10-06T15:55:58.918Z,17.83
2022-10-06T15:59:00.758Z,17.91
2022-10-06T16:02:05.039Z,17.63
2022-10-06T16:05:07.085Z,17.48
2022-10-06T16:08:08.713Z,17.40
2022-10-06T16:11:11.712Z,17.48
2022-10-06T16:14:14.317Z,17.40
2022-10-06T16:17:17.408Z,17.18
2022-10-06T16:20:19.067Z,16.88
2022-10-06T16:23:20.839Z,16.98
2022-10-06T16:26:24.681Z,16.97
2022-10-06T16:29:27.525Z,16.78
2022-10-06T16:32:29.357Z,16.41
2022-10-06T16:35:31.062Z,16.21
2022-10-06T16:38:32.934Z,16.01
2022-10-06T16:41:36.092Z,15.95
2022-10-06T16:44:37.869Z,15.83
2022-10-06T16:47:39.620Z,15.47
2022-10-06T16:50:41.450Z,15.17
2022-10-06T16:53:44.741Z,15.03
2022-10-06T16:56:51.678Z,15.03
2022-10-06T16:59:53.489Z,14.82
2022-10-06T17:02:55.305Z,14.48
2022-10-06T17:06:02.302Z,14.33
2022-10-06T17:09:03.963Z,14.18
2022-10-06T17:12:07.336Z,13.97
2022-10-06T17:15:09.468Z,13.88
2022-10-06T17:18:11.108Z,13.90
2022-10-06T17:21:39.707Z,13.96
2022-10-06T17:24:34.987Z,13.82
2022-10-06T17:27:41.960Z,13.58
2022-10-06T17:30:51.587Z,13.67
2022-10-06T17:33:53.807Z,13.58
2022-10-06T17:36:55.799Z,13.30
2022-10-06T17:39:57.422Z,13.31
2022-10-06T17:43:00.435Z,13.35
2022-10-06T17:46:04.500Z,13.43
2022-10-06T17:49:08.162Z,13.76
2022-10-06T17:52:09.915Z,13.88
2022-10-06T17:55:11.660Z,13.97
2022-10-06T17:58:18.565Z,13.68
2022-10-06T18:01:21.219Z,13.49
2022-10-06T18:04:23.639Z,13.28
2022-10-06T18:07:25.285Z,13.25
2022-10-06T18:10:45.615Z,13.55
2022-10-06T18:13:49.525Z,13.75
2022-10-06T18:16:57.457Z,13.82
2022-10-06T18:19:59.303Z,13.82
2022-10-06T18:23:01.037Z,13.53
2022-10-06T18:26:03.916Z,13.59
2022-10-06T18:29:07.560Z,13.41
2022-10-06T18:33:40.720Z,13.00
2022-10-06T18:38:55.345Z,13.09
2022-10-06T18:41:59.010Z,13.15
2022-10-06T18:45:20.445Z,13.08
2022-10-06T18:48:40.791Z,12.99
2022-10-06T18:51:44.382Z,12.80
2022-10-06T18:54:46.359Z,12.46
2022-10-06T18:57:48.092Z,12.14
2022-10-06T19:00:51.846Z,12.09
2022-10-06T19:03:54.945Z,12.13
2022-10-06T19:06:56.713Z,12.31
2022-10-06T19:09:59.053Z,12.10
2022-10-06T19:13:01.060Z,11.94
2022-10-06T19:16:04.288Z,11.69
2022-10-06T19:19:10.667Z,11.66
2022-10-06T19:22:14.112Z,11.55
2022-10-06T19:25:18.914Z,11.62
2022-10-06T19:28:20.832Z,11.71
2022-10-06T19:31:23.854Z,11.76
2022-10-06T19:34:26.447Z,11.80
2022-10-06T19:37:30.235Z,11.96
2022-10-06T19:40:32.027Z,11.82
2022-10-06T19:43:33.857Z,11.88
2022-10-06T19:46:37.559Z,11.79
2022-10-06T19:49:39.330Z,11.61
2022-10-06T19:52:41.302Z,11.70
2022-10-06T19:55:43.524Z,11.43
2022-10-06T19:58:45.357Z,11.35
2022-10-06T20:01:50.024Z,11.20
2022-10-06T20:04:51.879Z,11.12
2022-10-06T20:07:54.179Z,11.05
2022-10-06T20:11:01.823Z,11.34
2022-10-06T20:14:04.282Z,11.34
2022-10-06T20:17:07.760Z,11.70
2022-10-06T20:20:10.152Z,11.87
2022-10-06T20:23:12.365Z,11.89
2022-10-06T20:26:17.246Z,11.61
2022-10-06T20:29:21.233Z,11.34
2022-10-06T20:32:24.657Z,11.14
2022-10-06T20:35:26.341Z,11.06
2022-10-06T20:39:00.137Z,10.88
2022-10-06T20:42:02.196Z,10.89
2022-10-06T20:45:04.350Z,10.76
2022-10-06T20:48:07.430Z,10.80
2022-10-06T20:51:10.396Z,10.69
2022-10-06T20:54:13.255Z,10.58
2022-10-06T20:57:14.892Z,10.57
2022-10-06T21:00:18.042Z,10.51
2022-10-06T21:03:21.036Z,10.63
2022-10-06T21:06:24.003Z,10.58
2022-10-06T21:09:28.154Z,10.50
2022-10-06T21:12:29.847Z,10.45
2022-10-06T21:15:31.569Z,10.37
2022-10-06T21:18:34.669Z,10.37
2022-10-06T21:21:37.490Z,10.44
2022-10-06T21:24:39.133Z,10.49
2022-10-06T21:27:41.041Z,10.40
2022-10-06T21:30:44.133Z,10.30
2022-10-06T21:33:48.633Z,10.37
2022-10-06T21:36:50.463Z,10.21
2022-10-06T21:39:52.057Z,10.30
2022-10-06T21:42:53.681Z,10.36
2022-10-06T21:46:17.111Z,10.24
2022-10-06T21:49:19.952Z,10.17
2022-10-06T21:52:21.634Z,10.08
2022-10-06T21:55:23.286Z,10.14
2022-10-06T21:58:25.202Z,10.14
2022-10-06T22:01:28.373Z,9.99
2022-10-06T22:04:31.421Z,10.07
2022-10-06T22:07:33.039Z,10.04
2022-10-06T22:10:34.678Z,10.10
2022-10-06T22:13:36.310Z,10.05
2022-10-06T22:16:38.653Z,9.91
2022-10-06T22:19:41.618Z,9.92
2022-10-06T22:22:43.258Z,9.83
2022-10-06T22:25:45.032Z,9.81
2022-10-06T22:28:48.243Z,9.82
2022-10-06T22:31:50.022Z,9.88
2022-10-06T22:34:53.713Z,9.81
2022-10-06T22:37:55.285Z,9.71
2022-10-06T22:40:59.749Z,9.61
2022-10-06T22:44:01.435Z,9.61
2022-10-06T22:47:03.110Z,9.58
2022-10-06T22:50:07.424Z,9.49
2022-10-06T22:53:10.140Z,9.22
2022-10-06T22:56:12.265Z,9.14
2022-10-06T22:59:13.943Z,9.25
2022-10-06T23:02:16.247Z,9.32
2022-10-06T23:05:19.223Z,9.20
2022-10-06T23:08:20.853Z,9.15
2022-10-06T23:11:22.963Z,9.12
2022-10-06T23:14:24.525Z,9.06
2022-10-06T23:17:26.169Z,8.95
2022-10-06T23:20:29.195Z,8.96
2022-10-06T23:23:31.397Z,9.01
2022-10-06T23:26:33.224Z,9.06
2022-10-06T23:29:35.227Z,9.10
2022-10-06T23:32:37.475Z,8.98
2022-10-06T23:35:40.659Z,9.04
2022-10-06T23:38:42.399Z,8.96
2022-10-06T23:41:44.240Z,8.93
2022-10-06T23:44:45.985Z,8.93
2022-10-06T23:47:47.741Z,8.97
2022-10-06T23:50:59.042Z,8.90
2022-10-06T23:54:00.644Z,8.92
2022-10-06T23:57:02.285Z,8.76
